createdAt,value
2018-12-19T00:01:25.842Z,10.68
2018-12-19T00:03:53.281Z,4.95
2018-12-19T00:06:20.706Z,6.90
2018-12-19T00:08:48.161Z,7.25
2018-12-19T00:11:15.586Z,6.45
2018-12-19T00:13:43.201Z,5.45
2018-12-19T00:16:10.622Z,7.15
2018-12-19T00:18:38.066Z,8.40
2018-12-19T00:21:05.497Z,6.72
2018-12-19T00:23:32.942Z,5.62
2018-12-19T00:26:00.387Z,5.42
2018-12-19T00:28:27.808Z,9.23
2018-12-19T00:30:55.311Z,4.40
2018-12-19T00:33:22.722Z,7.30
2018-12-19T00:35:50.175Z,5.67
2018-12-19T00:38:17.614Z,6.55
2018-12-19T00:40:45.050Z,5.30
2018-12-19T00:43:12.549Z,5.45
2018-12-19T00:45:40.000Z,6.20
2018-12-19T00:48:07.743Z,8.65
2018-12-19T00:50:35.194Z,6.92
2018-12-19T00:53:02.615Z,5.40
2018-12-19T00:55:30.053Z,10.95
2018-12-19T00:57:57.503Z,5.83
2018-12-19T01:00:25.030Z,6.42
2018-12-19T01:02:52.473Z,6.58
2018-12-19T01:05:19.939Z,5.72
2018-12-19T01:07:47.404Z,8.20
2018-12-19T01:10:14.865Z,5.55
2018-12-19T01:12:42.334Z,7.25
2018-12-19T01:15:10.274Z,6.10
2018-12-19T01:17:37.698Z,5.85
2018-12-19T01:20:05.153Z,6.15
2018-12-19T01:22:32.580Z,7.62
2018-12-19T01:25:00.322Z,5.15
2018-12-19T01:27:27.746Z,7.00
2018-12-19T01:29:55.470Z,6.80
2018-12-19T01:32:22.893Z,6.55
2018-12-19T01:34:50.309Z,5.87
2018-12-19T01:37:17.858Z,5.25
2018-12-19T01:39:45.964Z,6.75
2018-12-19T01:42:13.390Z,12.35
2018-12-19T01:44:40.870Z,7.45
2018-12-19T01:47:08.698Z,8.33
2018-12-19T01:49:36.114Z,6.60
2018-12-19T01:52:03.689Z,6.67
2018-12-19T01:54:31.140Z,9.63
2018-12-19T01:56:58.562Z,7.12
2018-12-19T01:59:25.997Z,6.53
2018-12-19T02:01:53.423Z,8.20
2018-12-19T02:04:20.886Z,7.87
2018-12-19T02:06:48.353Z,6.80
2018-12-19T02:09:15.817Z,6.92
2018-12-19T02:11:43.269Z,7.95
2018-12-19T02:14:10.694Z,7.75
2018-12-19T02:16:38.138Z,8.18
2018-12-19T02:19:05.606Z,7.17
2018-12-19T02:21:33.059Z,7.65
2018-12-19T02:24:00.475Z,6.78
2018-12-19T02:26:28.022Z,6.92
2018-12-19T02:28:55.471Z,6.95
2018-12-19T02:31:22.918Z,7.92
2018-12-19T02:33:50.570Z,8.58
2018-12-19T02:36:18.033Z,6.20
2018-12-19T02:38:45.498Z,6.97
2018-12-19T02:41:12.946Z,8.93
2018-12-19T02:43:40.463Z,7.17
2018-12-19T02:46:07.981Z,9.25
2018-12-19T02:48:35.429Z,4.80
2018-12-19T02:51:02.873Z,6.35
2018-12-19T02:53:30.379Z,7.53
2018-12-19T02:55:58.527Z,8.73
2018-12-19T02:58:25.969Z,8.13
2018-12-19T03:00:53.409Z,8.53
2018-12-19T03:03:20.851Z,7.80
2018-12-19T03:05:48.285Z,7.53
2018-12-19T03:08:15.709Z,7.58
2018-12-19T03:10:43.146Z,8.43
2018-12-19T03:13:10.597Z,6.60
2018-12-19T03:15:38.113Z,4.47
2018-12-19T03:18:05.558Z,7.35
2018-12-19T03:20:32.977Z,8.75
2018-12-19T03:23:00.438Z,6.45
2018-12-19T03:25:27.906Z,6.17
2018-12-19T03:27:55.342Z,5.65
2018-12-19T03:30:22.804Z,10.05
2018-12-19T03:32:50.320Z,6.95
2018-12-19T03:35:17.744Z,6.78
2018-12-19T03:37:45.210Z,6.65
2018-12-19T03:40:12.664Z,5.78
2018-12-19T03:42:40.114Z,6.45
2018-12-19T03:45:07.553Z,7.20
2018-12-19T03:47:34.982Z,7.00
2018-12-19T03:50:02.463Z,6.80
2018-12-19T03:52:29.948Z,7.97
2018-12-19T03:54:58.206Z,6.80
2018-12-19T03:57:25.874Z,7.03
2018-12-19T03:59:53.290Z,8.13
2018-12-19T04:02:20.714Z,7.62
2018-12-19T04:04:48.218Z,8.45
2018-12-19T04:07:15.794Z,10.85
2018-12-19T04:09:43.227Z,9.35
2018-12-19T04:12:10.726Z,8.35
2018-12-19T04:14:38.226Z,7.60
2018-12-19T04:17:05.689Z,10.00
2018-12-19T04:19:33.198Z,9.63
2018-12-19T04:22:00.626Z,11.90
2018-12-19T04:24:28.049Z,9.35
2018-12-19T04:26:55.469Z,12.00
2018-12-19T04:29:23.028Z,9.65
2018-12-19T04:31:50.490Z,11.53
2018-12-19T04:34:17.937Z,9.50
2018-12-19T04:36:45.382Z,8.45
2018-12-19T04:39:12.834Z,10.88
2018-12-19T04:41:40.249Z,9.40
2018-12-19T04:44:07.697Z,8.35
2018-12-19T04:46:35.123Z,9.48
2018-12-19T04:49:02.582Z,8.13
2018-12-19T04:51:30.002Z,8.08
2018-12-19T04:53:57.461Z,10.35
2018-12-19T04:56:24.877Z,10.28
2018-12-19T04:58:52.514Z,8.25
2018-12-19T05:01:19.941Z,11.53
2018-12-19T05:03:47.441Z,8.00
2018-12-19T05:06:14.910Z,8.95
2018-12-19T05:08:42.350Z,9.78
2018-12-19T05:11:09.785Z,10.35
2018-12-19T05:13:37.213Z,8.53
2018-12-19T05:16:04.622Z,9.48
2018-12-19T05:18:32.075Z,11.63
2018-12-19T05:20:59.606Z,10.78
2018-12-19T05:23:27.050Z,9.95
2018-12-19T05:25:54.470Z,8.98
2018-12-19T05:28:21.898Z,9.28
2018-12-19T05:30:49.322Z,12.10
2018-12-19T05:33:16.743Z,8.10
2018-12-19T05:35:44.182Z,8.23
2018-12-19T05:38:11.610Z,13.32
2018-12-19T05:40:39.049Z,9.00
2018-12-19T05:43:06.479Z,8.70
2018-12-19T05:45:34.631Z,11.45
2018-12-19T05:48:02.209Z,10.48
2018-12-19T05:50:29.663Z,8.38
2018-12-19T05:52:57.084Z,7.65
2018-12-19T05:55:24.990Z,10.75
2018-12-19T05:57:52.442Z,6.20
2018-12-19T06:00:19.918Z,7.20
2018-12-19T06:02:47.362Z,11.05
2018-12-19T06:05:14.829Z,9.98
2018-12-19T06:07:43.646Z,8.10
2018-12-19T06:10:11.287Z,7.33
2018-12-19T06:12:38.711Z,7.15
2018-12-19T06:15:06.295Z,6.95
2018-12-19T06:17:33.718Z,5.67
2018-12-19T06:20:01.385Z,7.42
2018-12-19T06:22:28.905Z,8.53
2018-12-19T06:24:56.373Z,7.17
2018-12-19T06:27:23.785Z,9.98
2018-12-19T06:29:51.235Z,6.90
2018-12-19T06:32:18.737Z,7.05
2018-12-19T06:34:46.253Z,6.72
2018-12-19T06:37:13.670Z,10.55
2018-12-19T06:39:41.118Z,11.45
2018-12-19T06:42:08.572Z,7.05
2018-12-19T06:44:36.041Z,9.23
2018-12-19T06:47:03.521Z,7.10
2018-12-19T06:49:31.030Z,5.70
2018-12-19T06:51:58.450Z,8.60
2018-12-19T06:54:25.877Z,5.60
2018-12-19T06:56:53.330Z,6.35
2018-12-19T06:59:20.753Z,8.73
2018-12-19T07:01:48.174Z,7.97
2018-12-19T07:04:15.615Z,7.15
2018-12-19T07:06:43.057Z,7.40
2018-12-19T07:09:10.766Z,8.28
2018-12-19T07:11:38.201Z,6.08
2018-12-19T07:14:05.702Z,9.50
2018-12-19T07:16:33.146Z,7.30
2018-12-19T07:19:00.565Z,8.58
2018-12-19T07:21:28.010Z,7.03
2018-12-19T07:23:55.457Z,9.73
2018-12-19T07:26:22.933Z,8.70
2018-12-19T07:28:50.423Z,6.20
2018-12-19T07:31:17.942Z,11.78
2018-12-19T07:33:45.394Z,6.25
2018-12-19T07:36:12.874Z,10.08
2018-12-19T07:38:40.302Z,9.03
2018-12-19T07:41:07.729Z,7.62
2018-12-19T07:43:35.153Z,7.45
2018-12-19T07:46:02.623Z,7.78
2018-12-19T07:48:30.282Z,9.48
2018-12-19T07:50:57.706Z,6.58
2018-12-19T07:53:25.126Z,9.60
2018-12-19T07:55:53.089Z,5.53
2018-12-19T07:58:20.530Z,7.92
2018-12-19T08:00:47.995Z,8.00
2018-12-19T08:03:15.421Z,7.58
2018-12-19T08:05:42.846Z,8.18
2018-12-19T08:08:10.270Z,10.45
2018-12-19T08:10:37.695Z,8.93
2018-12-19T08:13:05.237Z,8.73
2018-12-19T08:15:32.987Z,10.88
2018-12-19T08:18:00.430Z,7.40
2018-12-19T08:20:27.860Z,7.10
2018-12-19T08:22:55.289Z,10.55
2018-12-19T08:25:22.742Z,10.88
2018-12-19T08:27:50.191Z,6.12
2018-12-19T08:30:17.649Z,9.03
2018-12-19T08:32:45.092Z,8.60
2018-12-19T08:35:12.517Z,6.90
2018-12-19T08:37:40.686Z,12.43
2018-12-19T08:40:08.190Z,6.70
2018-12-19T08:42:35.706Z,7.47
2018-12-19T08:45:03.374Z,7.28
2018-12-19T08:47:30.794Z,8.63
2018-12-19T08:49:58.249Z,9.05
2018-12-19T08:52:25.671Z,7.33
2018-12-19T08:54:53.154Z,5.70
2018-12-19T08:57:20.605Z,7.28
2018-12-19T08:59:48.021Z,6.70
2018-12-19T09:02:15.490Z,8.00
2018-12-19T09:04:42.929Z,7.45
2018-12-19T09:07:11.038Z,5.60
2018-12-19T09:09:38.471Z,6.90
2018-12-19T09:12:05.919Z,6.28
2018-12-19T09:14:33.370Z,6.42
2018-12-19T09:17:00.923Z,6.47
2018-12-19T09:19:28.434Z,6.90
2018-12-19T09:21:56.290Z,6.85
2018-12-19T09:24:23.755Z,5.75
2018-12-19T09:26:51.193Z,5.10
2018-12-19T09:29:18.621Z,7.12
2018-12-19T09:31:46.610Z,5.35
2018-12-19T09:34:14.854Z,7.03
2018-12-19T09:36:42.305Z,4.90
2018-12-19T09:39:09.725Z,8.65
2018-12-19T09:41:37.154Z,4.85
2018-12-19T09:44:05.065Z,7.22
2018-12-19T09:46:32.519Z,4.45
2018-12-19T09:48:59.962Z,3.77
2018-12-19T09:51:27.394Z,5.58
2018-12-19T09:53:54.818Z,5.22
2018-12-19T09:56:22.254Z,5.45
2018-12-19T09:58:49.970Z,4.12
2018-12-19T10:01:17.445Z,5.33
2018-12-19T10:03:45.261Z,5.08
2018-12-19T10:06:12.685Z,5.12
2018-12-19T10:08:40.111Z,5.00
2018-12-19T10:11:07.541Z,4.42
2018-12-19T10:13:34.969Z,4.60
2018-12-19T10:16:02.398Z,5.97
2018-12-19T10:18:29.849Z,5.45
2018-12-19T10:20:57.294Z,4.70
2018-12-19T10:23:24.750Z,5.75
2018-12-19T10:25:57.749Z,4.83
2018-12-19T10:28:31.033Z,3.72
2018-12-19T10:30:58.518Z,5.70
2018-12-19T10:33:25.992Z,3.92
2018-12-19T10:35:53.421Z,3.50
2018-12-19T10:38:20.888Z,3.05
2018-12-19T10:40:48.317Z,3.33
2018-12-19T10:43:16.269Z,2.70
2018-12-19T10:45:43.783Z,2.77
2018-12-19T10:48:11.210Z,3.60
2018-12-19T10:50:38.674Z,2.87
2018-12-19T10:53:06.147Z,5.15
2018-12-19T10:55:33.566Z,4.05
2018-12-19T10:58:01.011Z,2.70
2018-12-19T11:00:34.102Z,2.57
2018-12-19T11:03:01.526Z,3.67
2018-12-19T11:05:28.963Z,2.65
2018-12-19T11:07:56.438Z,3.35
2018-12-19T11:10:23.957Z,2.25
2018-12-19T11:12:51.406Z,3.60
2018-12-19T11:15:18.857Z,7.37
2018-12-19T11:17:46.388Z,4.30
2018-12-19T11:20:13.826Z,3.17
2018-12-19T11:22:41.318Z,2.43
2018-12-19T11:25:08.737Z,2.00
2018-12-19T11:27:36.179Z,2.57
2018-12-19T11:30:05.039Z,2.80
2018-12-19T11:32:32.982Z,2.50
2018-12-19T11:35:00.414Z,2.55
2018-12-19T11:37:28.063Z,2.33
2018-12-19T11:39:55.471Z,4.37
2018-12-19T11:42:22.943Z,2.70
2018-12-19T11:44:50.366Z,3.67
2018-12-19T11:47:17.804Z,4.00
2018-12-19T11:49:45.247Z,3.33
2018-12-19T11:52:12.686Z,2.77
2018-12-19T11:54:40.159Z,3.33
2018-12-19T11:57:07.927Z,5.30
2018-12-19T11:59:35.382Z,2.93
2018-12-19T12:02:02.917Z,2.67
2018-12-19T12:04:30.350Z,2.30
2018-12-19T12:06:57.862Z,3.33
2018-12-19T12:09:25.328Z,2.00
2018-12-19T12:11:52.827Z,3.67
2018-12-19T12:14:20.258Z,2.70
2018-12-19T12:16:47.713Z,2.70
2018-12-19T12:19:15.151Z,3.57
2018-12-19T12:21:42.731Z,2.92
2018-12-19T12:24:10.198Z,3.50
2018-12-19T12:26:37.631Z,2.40
2018-12-19T12:29:05.050Z,4.90
2018-12-19T12:31:32.490Z,1.70
2018-12-19T12:33:59.934Z,1.97
2018-12-19T12:36:27.392Z,3.25
2018-12-19T12:38:54.818Z,3.20
2018-12-19T12:41:22.245Z,3.30
2018-12-19T12:43:49.670Z,6.90
2018-12-19T12:46:17.183Z,3.00
2018-12-19T12:48:44.590Z,2.90
2018-12-19T12:51:12.011Z,3.03
2018-12-19T12:53:39.443Z,2.20
2018-12-19T12:56:06.867Z,4.17
2018-12-19T12:58:34.353Z,1.63
2018-12-19T13:01:01.830Z,4.20
2018-12-19T13:03:29.270Z,2.98
2018-12-19T13:05:57.738Z,2.07
2018-12-19T13:08:25.326Z,4.13
2018-12-19T13:10:52.807Z,3.93
2018-12-19T13:13:20.263Z,3.00
2018-12-19T13:15:47.695Z,7.23
2018-12-19T13:18:15.155Z,3.60
2018-12-19T13:20:42.643Z,4.27
2018-12-19T13:23:10.095Z,3.33
2018-12-19T13:25:37.540Z,2.63
2018-12-19T13:28:05.012Z,2.80
2018-12-19T13:30:32.466Z,2.87
2018-12-19T13:32:59.907Z,3.30
2018-12-19T13:35:27.358Z,4.07
2018-12-19T13:37:54.842Z,6.33
2018-12-19T13:40:22.286Z,7.00
2018-12-19T13:42:49.709Z,1.80
2018-12-19T13:45:17.147Z,2.77
2018-12-19T13:47:44.576Z,3.40
2018-12-19T13:50:12.002Z,1.67
2018-12-19T13:52:39.448Z,4.23
2018-12-19T13:55:07.014Z,3.07
2018-12-19T13:57:34.453Z,1.73
2018-12-19T14:00:01.881Z,2.77
2018-12-19T14:02:29.335Z,5.60
2018-12-19T14:04:56.772Z,5.40
2018-12-19T14:07:24.243Z,4.40
2018-12-19T14:09:52.942Z,6.33
2018-12-19T14:12:20.578Z,5.25
2018-12-19T14:14:48.010Z,1.53
2018-12-19T14:17:15.461Z,2.33
2018-12-19T14:19:42.895Z,4.00
2018-12-19T14:22:10.342Z,2.95
2018-12-19T14:24:37.828Z,3.10
2018-12-19T14:27:05.384Z,3.30
2018-12-19T14:29:32.814Z,2.70
2018-12-19T14:32:00.282Z,2.73
2018-12-19T14:34:27.726Z,3.52
2018-12-19T14:36:55.177Z,3.17
2018-12-19T14:39:22.630Z,4.30
2018-12-19T14:41:50.084Z,4.03
2018-12-19T14:44:17.526Z,3.00
2018-12-19T14:46:44.978Z,2.17
2018-12-19T14:49:14.127Z,2.73
2018-12-19T14:51:41.880Z,2.45
2018-12-19T14:54:09.399Z,2.67
2018-12-19T14:56:36.867Z,1.47
2018-12-19T14:59:04.322Z,3.62
2018-12-19T15:01:31.878Z,2.03
2018-12-19T15:03:59.364Z,5.00
2018-12-19T15:06:26.926Z,2.67
2018-12-19T15:08:54.417Z,2.53
2018-12-19T15:11:21.848Z,2.08
2018-12-19T15:13:49.273Z,2.33
2018-12-19T15:16:18.633Z,8.85
2018-12-19T15:18:46.093Z,4.08
2018-12-19T15:21:13.632Z,3.17
2018-12-19T15:23:41.089Z,7.45
2018-12-19T15:26:08.550Z,2.80
2018-12-19T15:28:35.990Z,5.15
2018-12-19T15:31:03.433Z,3.05
2018-12-19T15:33:30.909Z,3.95
2018-12-19T15:35:58.506Z,6.07
2018-12-19T15:38:25.965Z,10.55
2018-12-19T15:40:53.391Z,4.43
2018-12-19T15:43:20.846Z,8.08
2018-12-19T15:45:48.308Z,7.35
2018-12-19T15:48:15.748Z,6.77
2018-12-19T15:50:43.204Z,3.25
2018-12-19T15:53:11.157Z,4.37
2018-12-19T15:55:38.607Z,4.85
2018-12-19T15:58:06.062Z,7.50
2018-12-19T16:00:33.524Z,7.45
2018-12-19T16:03:00.991Z,8.58
2018-12-19T16:05:28.423Z,5.58
2018-12-19T16:07:55.882Z,10.38
2018-12-19T16:10:23.340Z,6.05
2018-12-19T16:12:50.790Z,7.67
2018-12-19T16:15:18.292Z,5.13
2018-12-19T16:17:45.713Z,7.12
2018-12-19T16:20:13.149Z,4.95
2018-12-19T16:22:40.658Z,4.15
2018-12-19T16:25:08.149Z,4.65
2018-12-19T16:27:35.594Z,6.22
2018-12-19T16:30:03.374Z,5.62
2018-12-19T16:32:30.825Z,5.05
2018-12-19T16:34:58.315Z,5.90
2018-12-19T16:37:25.758Z,7.58
2018-12-19T16:39:53.192Z,3.05
2018-12-19T16:42:20.662Z,6.97
2018-12-19T16:44:48.120Z,5.67
2018-12-19T16:47:15.546Z,4.25
2018-12-19T16:49:42.977Z,6.90
2018-12-19T16:52:10.457Z,4.40
2018-12-19T16:54:37.918Z,4.33
2018-12-19T16:57:05.361Z,5.40
2018-12-19T16:59:32.794Z,8.08
2018-12-19T17:02:00.235Z,9.90
2018-12-19T17:04:27.693Z,11.97
2018-12-19T17:06:55.168Z,4.08
2018-12-19T17:09:22.601Z,6.97
2018-12-19T17:11:50.050Z,5.35
2018-12-19T17:14:17.527Z,7.95
2018-12-19T17:16:44.990Z,7.40
2018-12-19T17:19:12.421Z,12.50
2018-12-19T17:21:39.870Z,4.97
2018-12-19T17:24:07.327Z,8.08
2018-12-19T17:26:34.749Z,8.05
2018-12-19T17:29:02.282Z,7.10
2018-12-19T17:31:29.727Z,12.03
2018-12-19T17:33:57.153Z,7.35
2018-12-19T17:36:24.678Z,10.65
2018-12-19T17:38:52.233Z,5.87
2018-12-19T17:41:19.687Z,7.15
2018-12-19T17:43:47.110Z,7.35
2018-12-19T17:46:14.580Z,10.45
2018-12-19T17:48:42.004Z,9.43
2018-12-19T17:51:09.453Z,5.90
2018-12-19T17:53:36.894Z,6.95
2018-12-19T17:56:04.355Z,3.95
2018-12-19T17:58:31.783Z,6.97
2018-12-19T18:00:59.246Z,8.20
2018-12-19T18:03:26.687Z,5.50
2018-12-19T18:05:54.118Z,8.30
2018-12-19T18:08:21.571Z,5.53
2018-12-19T18:10:49.046Z,9.78
2018-12-19T18:13:16.490Z,6.55
2018-12-19T18:15:43.946Z,13.25
2018-12-19T18:18:11.388Z,7.08
2018-12-19T18:20:38.847Z,8.95
2018-12-19T18:23:06.338Z,5.90
2018-12-19T18:25:33.813Z,10.00
2018-12-19T18:28:01.336Z,12.10
2018-12-19T18:30:28.862Z,7.60
2018-12-19T18:32:56.309Z,5.35
2018-12-19T18:35:23.745Z,8.63
2018-12-19T18:37:51.190Z,12.82
2018-12-19T18:40:18.655Z,7.00
2018-12-19T18:42:46.106Z,10.65
2018-12-19T18:45:13.575Z,8.35
2018-12-19T18:47:41.078Z,7.90
2018-12-19T18:50:08.549Z,9.95
2018-12-19T18:52:36.030Z,12.63
2018-12-19T18:55:04.427Z,7.10
2018-12-19T18:57:32.014Z,6.92
2018-12-19T18:59:59.530Z,6.50
2018-12-19T19:02:26.998Z,10.03
2018-12-19T19:04:54.602Z,7.65
2018-12-19T19:07:22.185Z,7.28
2018-12-19T19:09:49.625Z,7.60
2018-12-19T19:12:17.162Z,6.50
2018-12-19T19:14:44.589Z,6.72
2018-12-19T19:17:12.680Z,11.63
2018-12-19T19:19:40.101Z,9.70
2018-12-19T19:22:07.558Z,6.60
2018-12-19T19:24:35.072Z,9.65
2018-12-19T19:27:02.527Z,9.70
2018-12-19T19:29:29.951Z,7.45
2018-12-19T19:31:57.418Z,8.60
2018-12-19T19:34:25.281Z,10.48
2018-12-19T19:36:52.769Z,12.95
2018-12-19T19:39:20.203Z,9.08
2018-12-19T19:41:47.655Z,14.87
2018-12-19T19:44:15.081Z,10.25
2018-12-19T19:46:42.537Z,10.82
2018-12-19T19:49:09.967Z,8.45
2018-12-19T19:51:37.425Z,10.50
2018-12-19T19:54:04.871Z,8.15
2018-12-19T19:56:32.322Z,8.25
2018-12-19T19:58:59.779Z,11.43
2018-12-19T20:01:27.239Z,9.33
2018-12-19T20:03:54.691Z,10.75
2018-12-19T20:06:22.164Z,10.50
2018-12-19T20:08:49.610Z,7.55
2018-12-19T20:11:17.129Z,11.77
2018-12-19T20:13:44.549Z,7.10
2018-12-19T20:16:12.085Z,9.03
2018-12-19T20:18:39.519Z,13.25
2018-12-19T20:21:07.034Z,14.68
2018-12-19T20:23:34.854Z,12.18
2018-12-19T20:26:03.254Z,9.28
2018-12-19T20:28:30.681Z,8.80
2018-12-19T20:30:58.129Z,11.75
2018-12-19T20:33:26.272Z,8.95
2018-12-19T20:35:53.910Z,9.43
2018-12-19T20:38:21.463Z,10.03
2018-12-19T20:40:48.962Z,16.10
2018-12-19T20:43:16.411Z,9.75
2018-12-19T20:45:43.938Z,10.80
2018-12-19T20:48:11.388Z,16.23
2018-12-19T20:50:38.828Z,17.35
2018-12-19T20:53:06.342Z,11.35
2018-12-19T20:55:33.790Z,11.30
2018-12-19T20:58:01.260Z,14.10
2018-12-19T21:00:28.819Z,13.83
2018-12-19T21:02:56.348Z,15.28
2018-12-19T21:05:23.812Z,14.63
2018-12-19T21:07:51.364Z,16.48
2018-12-19T21:10:19.034Z,15.13
2018-12-19T21:12:46.478Z,14.28
2018-12-19T21:15:13.910Z,14.78
2018-12-19T21:17:47.130Z,12.78
2018-12-19T21:20:14.602Z,14.30
2018-12-19T21:22:42.063Z,14.10
2018-12-19T21:25:09.514Z,16.02
2018-12-19T21:27:36.958Z,19.07
2018-12-19T21:30:06.871Z,18.37
2018-12-19T21:32:34.330Z,17.60
2018-12-19T21:35:01.771Z,17.20
2018-12-19T21:37:29.344Z,19.65
2018-12-19T21:39:56.876Z,30.65
2018-12-19T21:42:24.383Z,17.75
2018-12-19T21:44:51.841Z,19.37
2018-12-19T21:47:19.282Z,17.82
2018-12-19T21:49:47.244Z,21.05
2018-12-19T21:52:14.774Z,25.50
2018-12-19T21:54:42.256Z,25.30
2018-12-19T21:57:09.746Z,25.70
2018-12-19T21:59:37.187Z,24.92
2018-12-19T22:02:04.655Z,28.35
2018-12-19T22:04:32.126Z,21.27
2018-12-19T22:06:59.829Z,23.50
2018-12-19T22:09:27.311Z,25.05
2018-12-19T22:11:54.831Z,26.42
2018-12-19T22:14:22.375Z,23.10
2018-12-19T22:16:55.484Z,25.48
2018-12-19T22:19:22.954Z,21.42
2018-12-19T22:21:50.531Z,27.15
2018-12-19T22:24:18.022Z,26.73
2018-12-19T22:26:45.576Z,23.87
2018-12-19T22:29:13.427Z,28.23
2018-12-19T22:31:40.938Z,25.32
2018-12-19T22:34:08.495Z,25.92
2018-12-19T22:36:35.922Z,28.80
2018-12-19T22:39:06.950Z,25.43
2018-12-19T22:41:34.474Z,27.22
2018-12-19T22:44:07.839Z,28.25
2018-12-19T22:46:31.427Z,25.52
2018-12-19T22:48:58.967Z,24.90
2018-12-19T22:51:26.479Z,26.48
2018-12-19T22:53:54.862Z,27.30
2018-12-19T22:56:22.333Z,24.50
2018-12-19T22:58:49.791Z,28.67
2018-12-19T23:01:23.085Z,26.52
2018-12-19T23:03:56.384Z,25.77
2018-12-19T23:06:23.886Z,25.00
2018-12-19T23:08:51.373Z,23.15
2018-12-19T23:11:18.899Z,26.85
2018-12-19T23:13:46.340Z,25.43
2018-12-19T23:16:13.866Z,23.42
2018-12-19T23:18:41.448Z,25.08
2018-12-19T23:21:08.905Z,27.15
2018-12-19T23:23:36.437Z,29.02
2018-12-19T23:26:03.920Z,26.12
2018-12-19T23:28:31.450Z,29.72
2018-12-19T23:30:59.012Z,22.13
2018-12-19T23:33:26.628Z,24.87
2018-12-19T23:35:54.349Z,26.95
2018-12-19T23:38:21.877Z,24.65
2018-12-19T23:40:49.556Z,23.07
2018-12-19T23:43:17.094Z,24.27
2018-12-19T23:45:44.574Z,23.87
2018-12-19T23:48:12.068Z,23.75
2018-12-19T23:50:39.522Z,26.20
2018-12-19T23:53:07.031Z,22.37
2018-12-19T23:55:34.545Z,21.90
2018-12-19T23:58:02.060Z,25.90
